createdAt,value
2023-01-04T00:00:52.207Z,68.94
2023-01-04T00:03:19.126Z,68.19
2023-01-04T00:05:45.819Z,67.94
2023-01-04T00:08:12.480Z,68.21
2023-01-04T00:10:39.144Z,69.45
2023-01-04T00:13:05.785Z,69.83
2023-01-04T00:15:32.460Z,69.77
2023-01-04T00:17:59.157Z,69.25
2023-01-04T00:20:25.801Z,69.52
2023-01-04T00:22:52.451Z,69.04
2023-01-04T00:25:19.336Z,69.23
2023-01-04T00:27:46.051Z,69.87
2023-01-04T00:30:13.151Z,70.17
2023-01-04T00:32:39.867Z,70.06
2023-01-04T00:35:06.650Z,70.83
2023-01-04T00:37:33.290Z,69.68
2023-01-04T00:39:59.895Z,69.20
2023-01-04T00:42:26.558Z,69.65
2023-01-04T00:44:53.194Z,69.77
2023-01-04T00:47:19.868Z,69.55
2023-01-04T00:49:46.536Z,69.60
2023-01-04T00:52:13.360Z,69.30
2023-01-04T00:54:40.059Z,69.83
2023-01-04T00:57:07.299Z,69.58
2023-01-04T00:59:33.899Z,68.95
2023-01-04T01:02:00.793Z,69.26
2023-01-04T01:04:27.756Z,69.01
2023-01-04T01:06:54.591Z,69.70
2023-01-04T01:09:24.638Z,70.38
2023-01-04T01:11:54.954Z,69.45
2023-01-04T01:14:25.442Z,69.23
2023-01-04T01:16:56.681Z,69.52
2023-01-04T01:19:25.328Z,69.06
2023-01-04T01:21:52.045Z,68.39
2023-01-04T01:24:19.651Z,69.36
2023-01-04T01:26:46.767Z,69.12
2023-01-04T01:29:13.903Z,69.65
2023-01-04T01:31:41.259Z,68.86
2023-01-04T01:34:08.616Z,69.27
2023-01-04T01:36:35.324Z,69.00
2023-01-04T01:39:01.988Z,68.60
2023-01-04T01:41:32.389Z,69.08
2023-01-04T01:44:01.035Z,68.88
2023-01-04T01:46:33.689Z,68.44
2023-01-04T01:49:19.269Z,68.43
2023-01-04T01:51:46.004Z,68.37
2023-01-04T01:54:20.660Z,68.76
2023-01-04T01:56:51.355Z,68.41
2023-01-04T01:59:19.446Z,68.22
2023-01-04T02:01:46.526Z,68.22
2023-01-04T02:04:15.483Z,68.38
2023-01-04T02:06:47.642Z,67.72
2023-01-04T02:09:15.092Z,67.83
2023-01-04T02:11:41.788Z,68.69
2023-01-04T02:14:27.602Z,69.49
2023-01-04T02:17:06.268Z,69.16
2023-01-04T02:19:51.867Z,68.78
2023-01-04T02:22:58.098Z,68.44
2023-01-04T02:25:33.951Z,68.20
2023-01-04T02:28:09.605Z,68.89
2023-01-04T02:30:45.474Z,68.54
2023-01-04T02:33:18.000Z,68.80
2023-01-04T02:36:05.679Z,69.76
2023-01-04T02:39:11.076Z,69.93
2023-01-04T02:42:16.768Z,69.82
2023-01-04T02:45:01.321Z,69.43
2023-01-04T02:47:49.391Z,69.88
2023-01-04T02:50:32.089Z,68.87
2023-01-04T02:53:05.130Z,69.33
2023-01-04T02:55:44.465Z,69.89
2023-01-04T02:58:25.152Z,70.08
2023-01-04T03:01:20.219Z,68.47
2023-01-04T03:04:26.835Z,69.22
2023-01-04T03:07:03.953Z,70.26
2023-01-04T03:09:35.541Z,68.88
2023-01-04T03:12:26.908Z,68.70
2023-01-04T03:15:12.624Z,69.13
2023-01-04T03:18:13.639Z,68.25
2023-01-04T03:20:43.764Z,68.54
2023-01-04T03:23:33.055Z,68.75
2023-01-04T03:26:23.448Z,68.81
2023-01-04T03:29:11.232Z,68.84
2023-01-04T03:32:01.645Z,68.85
2023-01-04T03:34:47.569Z,68.55
2023-01-04T03:37:17.110Z,68.56
2023-01-04T03:40:17.615Z,68.40
2023-01-04T03:43:06.107Z,68.39
2023-01-04T03:45:59.194Z,68.54
2023-01-04T03:48:36.159Z,68.47
2023-01-04T03:51:15.006Z,68.38
2023-01-04T03:53:56.729Z,68.69
2023-01-04T03:56:26.536Z,68.08
2023-01-04T03:58:54.693Z,68.65
2023-01-04T04:01:23.724Z,68.31
2023-01-04T04:04:08.872Z,68.81
2023-01-04T04:06:54.161Z,68.23
2023-01-04T04:09:20.966Z,68.13
2023-01-04T04:11:47.719Z,68.12
2023-01-04T04:14:14.426Z,67.63
2023-01-04T04:16:41.370Z,67.66
2023-01-04T04:19:09.070Z,67.97
2023-01-04T04:21:36.399Z,67.33
2023-01-04T04:24:03.766Z,66.99
2023-01-04T04:26:30.762Z,67.27
2023-01-04T04:28:57.428Z,66.73
2023-01-04T04:31:24.272Z,66.91
2023-01-04T04:33:50.994Z,67.05
2023-01-04T04:36:17.638Z,67.23
2023-01-04T04:38:44.287Z,67.35
2023-01-04T04:41:31.879Z,67.50
2023-01-04T04:43:59.236Z,67.28
2023-01-04T04:46:25.901Z,67.53
2023-01-04T04:48:52.819Z,67.57
2023-01-04T04:51:19.485Z,68.09
2023-01-04T04:53:46.170Z,69.52
2023-01-04T04:56:12.821Z,68.06
2023-01-04T04:58:40.009Z,68.24
2023-01-04T05:01:07.326Z,68.33
2023-01-04T05:03:34.580Z,68.60
2023-01-04T05:06:01.595Z,68.91
2023-01-04T05:08:28.848Z,68.35
2023-01-04T05:10:55.520Z,68.50
2023-01-04T05:13:22.561Z,68.82
2023-01-04T05:15:50.845Z,68.70
2023-01-04T05:18:19.676Z,69.45
2023-01-04T05:20:47.523Z,69.27
2023-01-04T05:23:15.697Z,69.13
2023-01-04T05:25:42.701Z,71.29
2023-01-04T05:28:10.149Z,70.21
2023-01-04T05:30:53.269Z,70.44
2023-01-04T05:33:22.818Z,70.11
2023-01-04T05:35:50.233Z,71.27
2023-01-04T05:38:17.375Z,70.79
2023-01-04T05:40:44.254Z,70.18
2023-01-04T05:43:11.245Z,70.32
2023-01-04T05:45:37.893Z,70.96
2023-01-04T05:48:04.824Z,70.28
2023-01-04T05:50:31.646Z,70.17
2023-01-04T05:53:07.725Z,70.60
2023-01-04T05:55:34.656Z,70.19
2023-01-04T05:58:01.399Z,70.59
2023-01-04T06:00:28.892Z,70.23
2023-01-04T06:02:56.996Z,70.36
2023-01-04T06:05:24.590Z,69.87
2023-01-04T06:07:51.485Z,70.03
2023-01-04T06:10:19.304Z,70.45
2023-01-04T06:12:47.385Z,71.48
2023-01-04T06:15:14.514Z,71.11
2023-01-04T06:17:41.549Z,71.27
2023-01-04T06:20:10.500Z,72.05
2023-01-04T06:22:38.037Z,71.94
2023-01-04T06:25:05.144Z,70.95
2023-01-04T06:27:31.890Z,70.84
2023-01-04T06:29:58.587Z,71.01
2023-01-04T06:32:25.368Z,71.62
2023-01-04T06:34:52.144Z,71.92
2023-01-04T06:37:18.865Z,71.54
2023-01-04T06:39:45.575Z,71.26
2023-01-04T06:42:32.181Z,71.08
2023-01-04T06:44:58.971Z,71.63
2023-01-04T06:47:25.815Z,71.21
2023-01-04T06:49:52.772Z,71.73
2023-01-04T06:52:19.572Z,72.04
2023-01-04T06:54:46.397Z,71.37
2023-01-04T06:57:13.757Z,72.38
2023-01-04T06:59:40.541Z,72.42
2023-01-04T07:02:07.503Z,71.97
2023-01-04T07:04:34.323Z,71.68
2023-01-04T07:07:02.052Z,72.65
2023-01-04T07:09:28.764Z,72.59
2023-01-04T07:11:55.385Z,71.77
2023-01-04T07:14:22.100Z,72.72
2023-01-04T07:16:48.813Z,73.03
2023-01-04T07:19:15.645Z,71.94
2023-01-04T07:21:42.450Z,72.13
2023-01-04T07:24:09.415Z,72.49
2023-01-04T07:26:36.287Z,72.22
2023-01-04T07:29:15.550Z,72.39
2023-01-04T07:31:52.545Z,71.89
2023-01-04T07:34:22.443Z,71.84
2023-01-04T07:36:50.100Z,71.56
2023-01-04T07:39:18.404Z,70.79
2023-01-04T07:41:46.008Z,71.08
2023-01-04T07:44:14.970Z,70.45
2023-01-04T07:46:42.713Z,70.99
2023-01-04T07:49:17.734Z,70.21
2023-01-04T07:51:49.638Z,70.32
2023-01-04T07:54:17.388Z,70.67
2023-01-04T07:56:47.824Z,70.97
2023-01-04T07:59:16.204Z,70.68
2023-01-04T08:01:43.523Z,70.56
2023-01-04T08:04:12.546Z,70.34
2023-01-04T08:06:40.649Z,70.03
2023-01-04T08:09:11.469Z,69.48
2023-01-04T08:11:38.652Z,70.29
2023-01-04T08:14:05.366Z,69.43
2023-01-04T08:16:37.663Z,69.62
2023-01-04T08:19:13.293Z,69.63
2023-01-04T08:21:40.039Z,69.27
2023-01-04T08:24:09.940Z,69.00
2023-01-04T08:26:36.665Z,69.19
2023-01-04T08:29:03.343Z,68.35
2023-01-04T08:31:32.153Z,68.59
2023-01-04T08:34:01.417Z,69.10
2023-01-04T08:36:30.758Z,68.58
2023-01-04T08:39:03.226Z,69.44
2023-01-04T08:41:56.148Z,69.24
2023-01-04T08:44:18.836Z,69.36
2023-01-04T08:46:46.108Z,69.11
2023-01-04T08:49:13.162Z,68.54
2023-01-04T08:51:40.297Z,69.22
2023-01-04T08:54:07.309Z,68.80
2023-01-04T08:56:34.058Z,69.62
2023-01-04T08:59:01.571Z,68.77
2023-01-04T09:01:28.426Z,69.23
2023-01-04T09:03:56.371Z,69.10
2023-01-04T09:06:23.271Z,68.90
2023-01-04T09:08:50.592Z,68.55
2023-01-04T09:11:20.143Z,69.34
2023-01-04T09:13:47.613Z,69.72
2023-01-04T09:16:17.211Z,69.27
2023-01-04T09:18:44.701Z,68.78
2023-01-04T09:21:16.480Z,69.64
2023-01-04T09:23:44.721Z,69.69
2023-01-04T09:26:14.607Z,70.54
2023-01-04T09:28:42.099Z,70.75
2023-01-04T09:31:17.926Z,69.73
2023-01-04T09:34:13.622Z,70.21
2023-01-04T09:36:32.487Z,71.71
2023-01-04T09:38:59.174Z,70.71
2023-01-04T09:41:27.650Z,69.81
2023-01-04T09:44:02.157Z,70.56
2023-01-04T09:46:46.829Z,70.08
2023-01-04T09:49:21.176Z,72.18
2023-01-04T09:52:00.492Z,71.63
2023-01-04T09:54:42.498Z,70.31
2023-01-04T09:57:45.553Z,70.40
2023-01-04T10:00:19.813Z,70.96
2023-01-04T10:03:11.913Z,72.19
2023-01-04T10:05:40.409Z,71.70
2023-01-04T10:08:15.612Z,71.44
2023-01-04T10:11:14.546Z,71.35
2023-01-04T10:14:11.842Z,71.75
2023-01-04T10:17:12.923Z,71.66
2023-01-04T10:21:12.030Z,72.38
2023-01-04T10:22:51.270Z,72.84
2023-01-04T10:25:23.284Z,72.43
2023-01-04T10:28:25.158Z,73.83
2023-01-04T10:31:01.102Z,72.38
2023-01-04T10:33:50.492Z,73.07
2023-01-04T10:36:25.252Z,72.12
2023-01-04T10:39:00.375Z,72.67
2023-01-04T10:41:31.860Z,72.89
2023-01-04T10:44:12.209Z,72.14
2023-01-04T10:46:58.070Z,71.89
2023-01-04T10:49:43.653Z,72.12
2023-01-04T10:52:26.964Z,71.41
2023-01-04T10:55:01.918Z,70.64
2023-01-04T10:57:39.390Z,70.24
2023-01-04T11:00:13.502Z,70.02
2023-01-04T11:02:47.347Z,70.96
2023-01-04T11:05:20.829Z,70.52
2023-01-04T11:07:59.894Z,69.89
2023-01-04T11:10:50.768Z,70.31
2023-01-04T11:13:17.925Z,70.60
2023-01-04T11:15:45.565Z,69.32
2023-01-04T11:18:13.988Z,70.34
2023-01-04T11:20:41.296Z,71.06
2023-01-04T11:23:14.437Z,71.26
2023-01-04T11:26:13.284Z,70.92
2023-01-04T11:28:44.356Z,70.18
2023-01-04T11:31:20.190Z,71.10
2023-01-04T11:33:58.787Z,69.70
2023-01-04T11:36:31.727Z,71.63
2023-01-04T11:38:59.105Z,71.13
2023-01-04T11:41:26.661Z,71.28
2023-01-04T11:44:03.462Z,70.43
2023-01-04T11:46:31.940Z,71.65
2023-01-04T11:48:58.882Z,71.64
2023-01-04T11:51:31.700Z,71.85
2023-01-04T11:54:15.174Z,73.15
2023-01-04T11:57:05.808Z,71.60
2023-01-04T11:59:35.626Z,71.27
2023-01-04T12:02:58.634Z,70.94
2023-01-04T12:05:29.005Z,71.78
2023-01-04T12:07:58.051Z,72.27
2023-01-04T12:10:27.561Z,72.04
2023-01-04T12:12:56.346Z,72.26
2023-01-04T12:16:05.157Z,70.63
2023-01-04T12:18:38.916Z,71.29
2023-01-04T12:21:05.979Z,71.25
2023-01-04T12:23:34.207Z,71.85
2023-01-04T12:26:01.955Z,71.71
2023-01-04T12:28:31.112Z,71.73
2023-01-04T12:31:20.222Z,71.07
2023-01-04T12:34:17.389Z,72.20
2023-01-04T12:36:50.124Z,70.94
2023-01-04T12:39:16.825Z,71.30
2023-01-04T12:42:00.201Z,71.56
2023-01-04T12:44:38.999Z,71.45
2023-01-04T12:47:36.724Z,71.43
2023-01-04T12:50:27.426Z,71.36
2023-01-04T12:53:29.328Z,71.83
2023-01-04T12:55:45.418Z,71.42
2023-01-04T12:58:41.061Z,72.17
2023-01-04T13:01:26.035Z,72.24
2023-01-04T13:04:04.689Z,72.29
2023-01-04T13:06:41.555Z,71.84
2023-01-04T13:09:24.920Z,71.81
2023-01-04T13:12:03.945Z,71.83
2023-01-04T13:14:40.524Z,72.59
2023-01-04T13:17:15.002Z,72.60
2023-01-04T13:19:43.932Z,72.62
2023-01-04T13:22:18.204Z,72.10
2023-01-04T13:24:49.137Z,72.89
2023-01-04T13:27:21.697Z,74.60
2023-01-04T13:29:52.282Z,74.93
2023-01-04T13:32:30.545Z,74.55
2023-01-04T13:35:23.774Z,73.80
2023-01-04T13:37:51.393Z,74.25
2023-01-04T13:40:34.293Z,74.66
2023-01-04T13:43:16.136Z,73.66
2023-01-04T13:46:07.960Z,73.41
2023-01-04T13:48:41.462Z,73.34
2023-01-04T13:51:16.360Z,72.97
2023-01-04T13:53:57.369Z,73.73
2023-01-04T13:56:27.093Z,73.20
2023-01-04T13:58:54.224Z,72.62
2023-01-04T14:01:26.562Z,72.89
2023-01-04T14:04:01.770Z,73.44
2023-01-04T14:06:34.251Z,73.93
2023-01-04T14:09:25.058Z,73.78
2023-01-04T14:14:55.344Z,73.18
2023-01-04T14:17:32.237Z,72.83
2023-01-04T14:20:26.499Z,72.58
2023-01-04T14:22:58.310Z,73.83
2023-01-04T14:25:34.148Z,73.12
2023-01-04T14:28:22.437Z,73.57
2023-01-04T14:30:52.180Z,72.98
2023-01-04T14:33:26.198Z,72.72
2023-01-04T14:36:04.008Z,73.83
2023-01-04T14:38:35.329Z,73.56
2023-01-04T14:41:18.454Z,73.51
2023-01-04T14:43:55.030Z,74.05
2023-01-04T14:46:22.887Z,73.56
2023-01-04T14:48:49.845Z,73.40
2023-01-04T14:51:19.838Z,73.14
2023-01-04T14:53:46.693Z,73.01
2023-01-04T14:56:15.812Z,72.72
2023-01-04T14:58:43.124Z,72.88
2023-01-04T15:01:11.097Z,73.10
2023-01-04T15:03:38.883Z,73.46
2023-01-04T15:06:06.596Z,75.08
2023-01-04T15:08:33.897Z,74.10
2023-01-04T15:11:00.626Z,74.35
2023-01-04T15:13:28.046Z,73.95
2023-01-04T15:15:57.192Z,76.51
2023-01-04T15:18:24.023Z,74.78
2023-01-04T15:20:50.681Z,75.74
2023-01-04T15:23:17.339Z,75.42
2023-01-04T15:25:44.553Z,76.12
2023-01-04T15:28:11.273Z,75.83
2023-01-04T15:30:42.875Z,74.92
2023-01-04T15:33:10.262Z,74.73
2023-01-04T15:35:36.916Z,74.64
2023-01-04T15:38:06.455Z,74.34
2023-01-04T15:40:35.792Z,75.92
2023-01-04T15:43:03.207Z,74.61
2023-01-04T15:45:40.368Z,74.79
2023-01-04T15:48:11.105Z,75.24
2023-01-04T15:50:40.421Z,76.35
2023-01-04T15:53:07.811Z,75.98
2023-01-04T15:55:37.012Z,76.15
2023-01-04T15:58:05.107Z,76.22
2023-01-04T16:00:32.809Z,76.72
2023-01-04T16:02:59.752Z,75.95
2023-01-04T16:05:26.533Z,76.65
2023-01-04T16:07:53.274Z,76.33
2023-01-04T16:10:20.061Z,77.64
2023-01-04T16:12:54.565Z,77.74
2023-01-04T16:15:23.358Z,77.23
2023-01-04T16:17:50.335Z,75.89
2023-01-04T16:20:18.476Z,77.61
2023-01-04T16:22:45.704Z,76.86
2023-01-04T16:25:13.096Z,76.87
2023-01-04T16:27:40.854Z,77.54
2023-01-04T16:30:11.130Z,77.42
2023-01-04T16:32:43.480Z,76.25
2023-01-04T16:35:11.594Z,78.31
2023-01-04T16:37:39.096Z,78.73
2023-01-04T16:40:07.874Z,79.36
2023-01-04T16:42:36.258Z,79.93
2023-01-04T16:45:03.729Z,79.10
2023-01-04T16:47:39.009Z,80.12
2023-01-04T16:50:07.066Z,79.75
2023-01-04T16:52:33.848Z,79.92
2023-01-04T16:55:00.534Z,79.97
2023-01-04T16:57:27.275Z,79.98
2023-01-04T16:59:53.918Z,79.43
2023-01-04T17:02:21.018Z,79.29
2023-01-04T17:04:54.379Z,78.98
2023-01-04T17:07:21.645Z,80.93
2023-01-04T17:09:51.376Z,79.44
2023-01-04T17:15:41.298Z,81.64
2023-01-04T17:17:52.031Z,80.75
2023-01-04T17:20:18.960Z,79.82
2023-01-04T17:22:45.755Z,78.75
2023-01-04T17:25:12.555Z,79.75
2023-01-04T17:27:39.327Z,80.02
2023-01-04T17:30:06.556Z,80.60
2023-01-04T17:32:33.226Z,80.62
2023-01-04T17:34:59.868Z,80.38
2023-01-04T17:37:27.100Z,80.34
2023-01-04T17:39:54.340Z,80.67
2023-01-04T17:42:21.280Z,80.06
2023-01-04T17:44:49.381Z,79.93
2023-01-04T17:47:16.099Z,80.17
2023-01-04T17:49:42.754Z,79.15
2023-01-04T17:52:10.984Z,81.41
2023-01-04T17:54:40.408Z,80.53
2023-01-04T17:57:07.076Z,80.07
2023-01-04T17:59:33.767Z,81.11
2023-01-04T18:02:00.550Z,80.72
2023-01-04T18:04:27.306Z,81.16
2023-01-04T18:06:54.400Z,80.92
2023-01-04T18:09:24.538Z,82.20
2023-01-04T18:11:51.333Z,81.32
2023-01-04T18:14:18.215Z,82.11
2023-01-04T18:16:58.018Z,80.74
2023-01-04T18:19:27.865Z,79.92
2023-01-04T18:21:55.031Z,80.95
2023-01-04T18:24:38.655Z,81.76
2023-01-04T18:27:25.193Z,81.90
2023-01-04T18:29:54.284Z,80.38
2023-01-04T18:32:22.007Z,80.56
2023-01-04T18:34:48.943Z,81.01
2023-01-04T18:37:16.566Z,80.99
2023-01-04T18:39:43.424Z,80.81
2023-01-04T18:42:10.337Z,80.74
2023-01-04T18:44:43.811Z,80.69
2023-01-04T18:47:12.683Z,81.12
2023-01-04T18:49:39.483Z,81.96
2023-01-04T18:52:06.359Z,82.34
2023-01-04T18:54:34.027Z,82.24
2023-01-04T18:57:01.638Z,81.11
2023-01-04T18:59:30.965Z,81.61
2023-01-04T19:02:02.910Z,81.98
2023-01-04T19:04:32.283Z,81.62
2023-01-04T19:06:59.451Z,81.21
2023-01-04T19:09:26.251Z,81.93
2023-01-04T19:11:53.015Z,81.63
2023-01-04T19:14:19.789Z,81.23
2023-01-04T19:16:46.546Z,83.36
2023-01-04T19:19:13.171Z,82.51
2023-01-04T19:21:40.156Z,82.89
2023-01-04T19:24:07.249Z,82.03
2023-01-04T19:26:36.570Z,82.10
2023-01-04T19:29:05.203Z,81.63
2023-01-04T19:31:31.917Z,81.18
2023-01-04T19:33:58.630Z,79.91
2023-01-04T19:36:25.350Z,79.82
2023-01-04T19:38:53.677Z,80.38
2023-01-04T19:41:31.018Z,79.16
2023-01-04T19:44:05.661Z,78.79
2023-01-04T19:46:32.674Z,79.31
2023-01-04T19:48:59.838Z,79.43
2023-01-04T19:51:27.909Z,78.10
2023-01-04T19:53:55.116Z,78.75
2023-01-04T19:56:22.116Z,77.65
2023-01-04T19:58:48.973Z,77.02
2023-01-04T20:01:21.334Z,77.67
2023-01-04T20:03:48.307Z,77.13
2023-01-04T20:06:16.260Z,77.14
2023-01-04T20:08:43.513Z,76.96
2023-01-04T20:11:11.788Z,77.78
2023-01-04T20:13:39.243Z,78.14
2023-01-04T20:16:06.489Z,77.12
2023-01-04T20:18:33.899Z,77.78
2023-01-04T20:21:00.620Z,78.19
2023-01-04T20:23:27.856Z,77.53
2023-01-04T20:25:54.848Z,77.80
2023-01-04T20:28:24.941Z,77.97
2023-01-04T20:31:06.864Z,78.55
2023-01-04T20:33:33.771Z,77.87
2023-01-04T20:36:06.659Z,76.88
2023-01-04T20:38:39.875Z,77.37
2023-01-04T20:41:08.303Z,76.96
2023-01-04T20:43:36.191Z,77.20
2023-01-04T20:46:12.172Z,78.03
2023-01-04T20:48:39.801Z,77.99
2023-01-04T20:51:15.190Z,77.73
2023-01-04T20:53:42.304Z,77.85
2023-01-04T20:56:18.432Z,77.80
2023-01-04T20:58:46.435Z,77.69
2023-01-04T21:01:14.046Z,77.40
2023-01-04T21:03:40.944Z,78.27
2023-01-04T21:06:13.339Z,78.51
2023-01-04T21:08:41.954Z,79.33
2023-01-04T21:11:09.521Z,77.68
2023-01-04T21:13:36.224Z,77.91
2023-01-04T21:16:03.105Z,79.48
2023-01-04T21:18:29.921Z,78.77
2023-01-04T21:20:56.581Z,78.39
2023-01-04T21:23:26.859Z,78.73
2023-01-04T21:25:53.864Z,78.96
2023-01-04T21:28:21.860Z,79.83
2023-01-04T21:30:49.509Z,79.12
2023-01-04T21:33:17.147Z,79.80
2023-01-04T21:35:44.027Z,79.98
2023-01-04T21:38:11.386Z,79.50
2023-01-04T21:40:41.767Z,79.32
2023-01-04T21:43:15.978Z,79.78
2023-01-04T21:45:42.916Z,79.57
2023-01-04T21:48:09.688Z,79.59
2023-01-04T21:50:36.952Z,79.36
2023-01-04T21:53:03.886Z,79.04
2023-01-04T21:55:34.495Z,79.94
2023-01-04T21:58:02.181Z,79.65
2023-01-04T22:00:28.843Z,80.16
2023-01-04T22:02:55.556Z,80.51
2023-01-04T22:05:22.509Z,80.37
2023-01-04T22:07:49.211Z,79.18
2023-01-04T22:10:15.930Z,79.62
2023-01-04T22:12:44.816Z,79.76
2023-01-04T22:15:11.647Z,79.74
2023-01-04T22:17:38.549Z,80.13
2023-01-04T22:20:05.817Z,80.10
2023-01-04T22:22:32.556Z,80.06
2023-01-04T22:24:59.195Z,80.48
2023-01-04T22:27:27.160Z,80.38
2023-01-04T22:29:53.855Z,80.17
2023-01-04T22:32:20.507Z,80.20
2023-01-04T22:34:47.123Z,79.94
2023-01-04T22:37:13.808Z,80.96
2023-01-04T22:39:40.480Z,80.02
2023-01-04T22:42:07.307Z,79.66
2023-01-04T22:44:34.106Z,80.58
2023-01-04T22:47:00.957Z,80.62
2023-01-04T22:49:27.688Z,81.52
2023-01-04T22:51:55.779Z,79.67
2023-01-04T22:54:22.948Z,81.26
2023-01-04T22:56:50.478Z,81.62
2023-01-04T22:59:17.237Z,80.63
2023-01-04T23:01:43.932Z,81.98
2023-01-04T23:04:15.395Z,80.01
2023-01-04T23:06:42.433Z,81.49
2023-01-04T23:09:13.071Z,81.51
2023-01-04T23:11:41.002Z,81.58
2023-01-04T23:14:11.113Z,82.87
2023-01-04T23:16:38.395Z,83.28
2023-01-04T23:19:06.821Z,82.70
2023-01-04T23:21:34.831Z,81.62
2023-01-04T23:24:02.236Z,80.03
2023-01-04T23:26:30.299Z,82.08
2023-01-04T23:28:57.218Z,82.37
2023-01-04T23:31:25.937Z,81.31
2023-01-04T23:33:54.979Z,82.10
2023-01-04T23:36:24.273Z,81.75
2023-01-04T23:38:53.344Z,80.96
2023-01-04T23:41:20.267Z,80.65
2023-01-04T23:43:47.248Z,79.87
2023-01-04T23:46:16.193Z,80.67
2023-01-04T23:48:43.959Z,80.70
2023-01-04T23:51:13.073Z,81.50
2023-01-04T23:53:39.954Z,80.61
2023-01-04T23:56:13.348Z,80.15
2023-01-04T23:58:40.158Z,80.57
